Impacts TAF Board
For situational awareness. Not to be used for flight planning purposes.
IDs:

KPDX - Portland Intl Arpt, OR, US

Issued at 1723 UTC 20 Oct 2018
Updated at 2057 UTC 20 Oct 2018
Potential Impact None Slight Moderate High
Time<<21/21Z 21/22Z 21/23Z 22/00Z 22/01Z 22/02Z 22/03Z 22/04Z 22/05Z 22/06Z 22/07Z 22/08Z 22/09Z
Type
VIS
CIG
Cover
FltCat
WX
WDir
WSpd
WGst
Raw TAF
KPDX 201723Z 2018/2118 32006KT 5SM BR BKN006
  FM201900 35005KT P6SM SKC
  FM210100 12007KT P6SM SKC
  FM210700 VRB03KT P6SM SKC
  FM211000 VRB03KT 3SM BR BKN003


METAR Board
Radar Display
Forecast Discussion
For situational awareness. Not to be used for flight planning purposes.